Longworth, Texas
Current Conditions -  °F | °C
As of 11:35 PM on Friday 24 Oct 2014 (Local Time) from KSWW Reporting Station
Clear Clear  
Wind Chill: 67°   Ceiling: Unl
Heat Index: 67°   Visibility: 10mi
Dew Point: 54°   Wind: 9mph
Humidity: 61%   Direction: 170°S
Pressure: 30.18"   Gusts: NA
Location:  32.6787°N, 100.492°W
Report Text: KSWW 250435Z AUTO 17008KT 10SM CLR 20/12 A3018 RMK AO2 T01970120
Loading
Personal Weather Stations






























Interactive Weather Map
Tropical Storm Tracking
New forecast layout! Learn more

10-Day Weather Forecast

Advertisements
Track Severe Weather on mobile